Time;durP1;ratioP1;P1;durP2;ratioP2;P2;SDS_P1;SDS_P2;PMS_P1;PMS_P2;Temp;Humidity;BMP_temperature;BMP_pressure;BME280_temperature;BME280_humidity;BME280_pressure;Samples;Min_cycle;Max_cycle;Signal;HPM_P1;HPM_P2
2022/08/27 00:01:58;;;;;;;;;;;;;;;16.19;85.89;97212.00;10329835;28;20029;-56
2022/08/27 00:06:57;;;;;;;16.40;7.82;;;;;;;16.18;86.00;97210.28;10328457;28;20668;-56
2022/08/27 00:11:57;;;;;;;18.15;9.43;;;;;;;16.13;86.15;97207.81;10329070;28;20548;-56
2022/08/27 00:16:56;;;;;;;14.50;8.90;;;;;;;16.07;86.52;97208.03;10328903;28;20068;-55
2022/08/27 00:21:56;;;;;;;18.75;9.73;;;;;;;16.04;86.60;97203.75;10328442;28;20097;-56
2022/08/27 00:26:55;;;;;;;20.50;9.05;;;;;;;16.01;86.47;97203.81;10328876;28;20499;-56
2022/08/27 00:31:54;;;;;;;;;;;;;;;15.99;86.65;97207.41;10328910;28;20022;-56
2022/08/27 00:36:53;;;;;;;14.70;8.70;;;;;;;15.84;87.29;97206.13;10333678;28;19909;-56
2022/08/27 00:41:52;;;;;;;;;;;;;;;15.83;87.48;97209.63;10336834;28;20025;-56
2022/08/27 00:46:59;;;;;;;13.77;8.68;;;;;;;15.78;87.81;97211.50;10335271;28;19917;-56
2022/08/27 00:52:24;;;;;;;14.43;8.25;;;;;;;15.73;87.82;97208.19;10336030;28;20076;-56
2022/08/27 00:57:23;;;;;;;17.67;8.25;;;;;;;15.68;88.32;97211.78;10324255;28;20068;-56
2022/08/27 01:02:28;;;;;;;14.10;8.18;;;;;;;15.64;88.70;97207.53;10335056;28;20057;-56
2022/08/27 01:07:29;;;;;;;15.38;7.90;;;;;;;15.64;88.82;97214.53;10335123;28;20554;-55
2022/08/27 01:12:31;;;;;;;14.15;7.78;;;;;;;15.62;89.09;97206.75;10334839;28;20053;-56
2022/08/27 01:17:31;;;;;;;14.70;8.00;;;;;;;15.54;89.56;97206.09;10334876;28;20064;-56
2022/08/27 01:22:52;;;;;;;12.65;8.32;;;;;;;15.49;89.75;97213.22;10335307;28;20096;-57
2022/08/27 01:27:55;;;;;;;17.60;8.15;;;;;;;15.36;90.46;97209.25;10334835;28;20076;-56
2022/08/27 01:32:54;;;;;;;16.13;7.57;;;;;;;15.33;90.27;97215.44;10335032;28;20069;-57
2022/08/27 01:37:54;;;;;;;;;;;;;;;15.28;90.53;97212.09;10334594;28;20029;-57
2022/08/27 01:42:54;;;;;;;19.73;9.17;;;;;;;15.20;90.62;97204.47;10332736;28;19949;-56
2022/08/27 01:47:53;;;;;;;15.13;8.15;;;;;;;15.14;91.01;97211.63;10335239;28;20061;-55
2022/08/27 01:52:52;;;;;;;;;;;;;;;15.04;91.28;97218.88;10337036;28;20036;-55
2022/08/27 01:57:54;;;;;;;14.80;7.90;;;;;;;14.94;91.90;97222.63;10336198;28;19956;-56
2022/08/27 02:02:54;;;;;;;13.43;8.38;;;;;;;14.86;92.09;97224.59;10337647;28;20072;-55
2022/08/27 02:07:53;;;;;;;13.60;8.02;;;;;;;14.82;92.16;97208.97;10336367;28;20491;-55
2022/08/27 02:12:52;;;;;;;12.70;8.10;;;;;;;14.85;91.73;97212.41;10335523;28;20065;-55
2022/08/27 02:17:51;;;;;;;17.05;8.50;;;;;;;14.82;92.12;97216.81;10336569;28;20460;-56
2022/08/27 02:22:50;;;;;;;;;;;;;;;14.82;92.21;97214.22;10335979;28;20055;-56
2022/08/27 02:27:49;;;;;;;16.90;9.13;;;;;;;14.81;92.46;97217.72;10336174;28;19966;-56
2022/08/27 02:32:51;;;;;;;;;;;;;;;14.78;92.59;97217.81;10336651;28;20073;-55
2022/08/27 02:37:51;;;;;;;17.30;9.13;;;;;;;14.77;92.78;97217.84;10335576;28;19944;-55
2022/08/27 02:42:50;;;;;;;14.50;9.10;;;;;;;14.75;93.04;97220.50;10333147;28;20137;-56
2022/08/27 02:47:49;;;;;;;;;;;;;;;14.72;92.45;97231.03;10333261;28;20103;-55
2022/08/27 02:52:47;;;;;;;13.70;8.00;;;;;;;14.68;92.21;97216.28;10330833;28;20325;-55
2022/08/27 02:57:47;;;;;;;16.45;7.82;;;;;;;14.65;92.47;97221.59;10331278;28;20130;-55
2022/08/27 03:02:47;;;;;;;15.60;8.40;;;;;;;14.61;91.99;97227.78;10331405;28;20069;-55
2022/08/27 03:07:46;;;;;;;14.45;8.25;;;;;;;14.52;92.23;97222.81;10331158;28;20088;-56
2022/08/27 03:12:44;;;;;;;;;;;;;;;14.55;92.24;97231.44;10330621;28;20555;-56
2022/08/27 03:23:01;;;;;;;16.20;7.95;;;;;;;14.49;92.06;97233.34;10330483;28;20060;-56
2022/08/27 03:28:01;;;;;;;15.68;7.80;;;;;;;14.48;92.35;97242.09;10329844;28;20045;-56
2022/08/27 03:33:00;;;;;;;16.75;8.55;;;;;;;14.47;92.80;97248.19;10330125;28;20510;-56
2022/08/27 03:37:58;;;;;;;;;;;;;;;14.42;93.19;97248.28;10330016;28;20498;-56
2022/08/27 03:42:57;;;;;;;16.48;8.60;;;;;;;14.38;93.40;97249.25;10328727;28;19971;-56
2022/08/27 03:47:56;;;;;;;;;;;;;;;14.36;93.58;97253.69;10329857;28;20080;-56
2022/08/27 03:52:55;;;;;;;17.63;7.90;;;;;;;14.30;93.69;97252.06;10329096;28;19949;-55
2022/08/27 03:57:54;;;;;;;;;;;;;;;14.32;93.97;97259.84;10329950;28;20065;-56
2022/08/27 04:02:53;;;;;;;20.20;9.38;;;;;;;14.33;93.95;97262.41;10328563;28;20009;-55
2022/08/27 04:07:52;;;;;;;16.17;8.98;;;;;;;14.34;93.71;97264.16;10329448;28;20064;-55
2022/08/27 04:12:51;;;;;;;15.73;8.38;;;;;;;14.35;93.89;97268.47;10329020;28;20033;-56
2022/08/27 04:17:51;;;;;;;17.30;8.18;;;;;;;14.43;93.64;97267.41;10328162;28;20111;-55
2022/08/27 04:22:50;;;;;;;16.50;9.15;;;;;;;14.47;92.96;97269.06;10329573;28;20076;-56
2022/08/27 04:27:49;;;;;;;13.75;8.50;;;;;;;14.47;92.97;97269.06;10327932;28;20036;-56
2022/08/27 04:32:48;;;;;;;15.50;8.07;;;;;;;14.46;93.15;97273.44;10328162;28;20030;-55
2022/08/27 04:37:47;;;;;;;12.75;7.82;;;;;;;14.48;92.91;97269.03;10326871;28;20076;-55
2022/08/27 04:42:46;;;;;;;12.52;7.18;;;;;;;14.57;92.88;97275.78;10324306;28;20036;-57
2022/08/27 04:47:44;;;;;;;;;;;;;;;14.66;92.74;97277.28;10328013;28;20117;-55
2022/08/27 04:52:43;;;;;;;12.40;7.65;;;;;;;14.80;92.30;97272.63;10330266;28;19952;-56
2022/08/27 04:57:42;;;;;;;;;;;;;;;14.92;91.85;97277.53;10331501;28;20101;-55
2022/08/27 05:02:41;;;;;;;16.30;8.52;;;;;;;15.06;91.85;97285.03;10331070;28;20444;-55
2022/08/27 05:07:40;;;;;;;;;;;;;;;15.18;91.20;97287.31;10331403;28;20035;-55
2022/08/27 05:12:39;;;;;;;15.70;7.53;;;;;;;15.22;91.54;97288.94;10330599;28;20410;-55
2022/08/27 05:17:37;;;;;;;13.82;7.25;;;;;;;15.34;91.48;97297.31;10330304;28;20032;-55
2022/08/27 05:22:38;;;;;;;;;;;;;;;15.43;91.12;97289.22;10334092;28;20030;-55
2022/08/27 05:27:37;;;;;;;17.67;7.68;;;;;;;15.53;91.29;97285.47;10338639;28;20016;-57
2022/08/27 05:32:36;;;;;;;20.23;9.13;;;;;;;15.70;90.76;97291.97;10337437;28;20104;-57
2022/08/27 05:37:35;;;;;;;;;;;;;;;15.93;90.31;97288.69;10338931;28;20069;-55
2022/08/27 05:42:34;;;;;;;13.20;8.13;;;;;;;16.05;89.61;97283.13;10336831;28;19945;-56
2022/08/27 05:47:33;;;;;;;;;;;;;;;16.25;89.06;97279.88;10333931;28;20056;-55
2022/08/27 05:52:33;;;;;;;17.20;9.77;;;;;;;16.47;88.26;97283.53;10333633;28;19913;-58
2022/08/27 05:57:32;;;;;;;17.17;10.55;;;;;;;16.72;87.07;97290.56;10332234;28;20144;-56
2022/08/27 06:02:31;;;;;;;;;;;;;;;16.89;86.20;97280.44;10331307;28;20044;-56
2022/08/27 06:07:32;;;;;;;16.08;10.07;;;;;;;17.17;85.42;97284.72;10333581;28;19948;-56
2022/08/27 06:12:31;;;;;;;17.65;10.77;;;;;;;17.38;84.18;97290.09;10332539;28;20109;-57
2022/08/27 06:17:30;;;;;;;15.00;10.32;;;;;;;17.52;82.44;97282.63;10332029;28;20037;-57
2022/08/27 06:22:29;;;;;;;18.42;10.63;;;;;;;17.82;81.86;97292.91;10332533;28;20459;-57
2022/08/27 06:27:28;;;;;;;17.75;10.02;;;;;;;18.07;80.72;97293.69;10332127;28;20475;-57
2022/08/27 06:32:26;;;;;;;;;;;;;;;18.13;79.03;97267.22;10331976;28;20029;-56
2022/08/27 06:37:26;;;;;;;16.57;10.20;;;;;;;18.34;78.12;97283.03;10331954;28;19963;-56
2022/08/27 06:42:25;;;;;;;17.23;9.60;;;;;;;18.48;76.58;97280.72;10331183;28;20103;-56
2022/08/27 06:47:24;;;;;;;13.60;8.32;;;;;;;18.72;74.91;97285.91;10331559;28;20088;-56
2022/08/27 06:52:23;;;;;;;21.15;9.25;;;;;;;18.99;74.31;97283.88;10331600;28;20076;-56
2022/08/27 06:57:23;;;;;;;21.63;9.38;;;;;;;19.22;73.84;97282.91;10329329;28;20033;-56
2022/08/27 07:02:22;;;;;;;18.67;9.25;;;;;;;19.39;72.42;97277.78;10327529;28;20491;-56
2022/08/27 07:07:21;;;;;;;15.15;8.38;;;;;;;19.68;71.60;97286.19;10329164;28;20521;-56
2022/08/27 07:12:20;;;;;;;12.88;7.40;;;;;;;19.97;69.99;97281.34;10329481;28;20057;-56
2022/08/27 07:17:19;;;;;;;14.73;6.20;;;;;;;20.14;68.23;97273.53;10330102;28;20080;-56
2022/08/27 07:22:18;;;;;;;15.02;5.93;;;;;;;20.36;66.18;97268.09;10330473;28;20039;-56
2022/08/27 07:27:17;;;;;;;15.65;6.07;;;;;;;20.63;65.30;97284.38;10330105;28;20120;-56
2022/08/27 07:32:17;;;;;;;13.15;6.03;;;;;;;20.81;63.24;97279.13;10330113;28;20419;-56
2022/08/27 07:37:16;;;;;;;12.85;5.25;;;;;;;21.02;61.10;97272.75;10330614;28;20071;-56
2022/08/27 07:47:32;;;;;;;16.55;6.50;;;;;;;21.49;59.14;97277.38;10328959;28;20080;-57
2022/08/27 07:52:32;;;;;;;16.65;6.50;;;;;;;21.81;57.89;97276.63;10331373;28;20033;-57
2022/08/27 07:57:31;;;;;;;13.88;5.85;;;;;;;22.05;57.25;97279.75;10320997;28;20503;-57
2022/08/27 08:02:30;;;;;;;9.50;5.65;;;;;;;22.39;56.88;97273.44;10331643;28;20041;-57
2022/08/27 08:07:29;;;;;;;10.15;5.68;;;;;;;22.71;56.12;97274.22;10310059;28;20030;-57
2022/08/27 08:12:28;;;;;;;17.00;6.40;;;;;;;22.98;55.22;97269.16;10283243;28;20479;-57
2022/08/27 08:17:27;;;;;;;12.32;5.68;;;;;;;23.30;55.22;97270.81;10283455;28;20049;-57
2022/08/27 08:22:26;;;;;;;15.70;6.47;;;;;;;23.57;53.90;97263.06;10283961;28;20034;-57
2022/08/27 08:27:26;;;;;;;19.35;6.47;;;;;;;23.92;53.37;97258.19;10282511;28;20121;-57
2022/08/27 08:32:25;;;;;;;15.30;5.95;;;;;;;24.24;52.88;97258.00;10282708;28;20073;-57
2022/08/27 08:37:25;;;;;;;14.73;6.63;;;;;;;24.51;52.64;97243.88;10278905;28;20061;-57
2022/08/27 08:42:43;;;;;;;14.45;6.60;;;;;;;24.90;50.79;97251.88;10280864;28;20112;-57
2022/08/27 08:47:42;;;;;;;17.90;6.13;;;;;;;25.09;48.52;97256.81;10282442;28;20077;-57
2022/08/27 08:52:53;;;;;;;11.63;6.68;;;;;;;25.42;45.05;97260.75;10285401;28;20681;-57
2022/08/27 08:58:33;;;;;;;11.65;5.15;;;;;;;25.78;42.92;97253.00;10289210;28;20068;-57
2022/08/27 09:03:35;;;;;;;15.95;4.50;;;;;;;26.09;40.98;97252.53;10292741;28;20065;-57
2022/08/27 09:08:36;;;;;;;6.80;3.95;;;;;;;26.41;39.67;97245.84;10292509;28;20068;-57
2022/08/27 09:13:57;;;;;;;12.45;4.10;;;;;;;26.78;40.77;97251.94;10332261;28;20076;-57
2022/08/27 09:18:56;;;;;;;16.73;4.55;;;;;;;27.04;39.79;97242.03;10332995;28;20080;-57
2022/08/27 09:24:19;;;;;;;11.60;4.45;;;;;;;27.22;37.80;97249.59;10332243;28;20064;-57
2022/08/27 09:29:18;;;;;;;14.60;4.90;;;;;;;27.32;36.12;97246.09;10332290;28;20079;-55
2022/08/27 09:34:19;;;;;;;15.10;3.83;;;;;;;27.40;34.20;97235.69;10331828;28;20065;-55
2022/08/27 09:39:18;;;;;;;12.38;3.72;;;;;;;27.74;35.80;97225.06;10332085;28;20073;-55
2022/08/27 09:44:19;;;;;;;15.75;4.63;;;;;;;27.95;36.04;97225.19;10331699;28;20084;-55
2022/08/27 09:49:18;;;;;;;13.15;3.78;;;;;;;28.09;34.70;97216.09;10335080;28;20080;-55
2022/08/27 09:54:31;;;;;;;14.30;4.35;;;;;;;28.28;35.08;97222.63;10334624;28;20069;-55
2022/08/27 09:59:35;;;;;;;14.60;4.32;;;;;;;28.36;34.57;97223.69;10296340;28;20076;-55
2022/08/27 10:04:41;;;;;;;9.30;3.97;;;;;;;28.50;33.13;97224.34;10294315;28;20073;-55
2022/08/27 10:09:52;;;;;;;11.40;3.97;;;;;;;28.58;32.84;97228.09;10292525;28;20484;-57
2022/08/27 10:14:56;;;;;;;13.13;3.95;;;;;;;28.71;31.80;97227.94;10292989;28;20073;-55
2022/08/27 10:19:58;;;;;;;20.35;4.13;;;;;;;28.96;32.55;97225.91;10293211;28;20084;-55
2022/08/27 10:25:15;;;;;;;19.10;4.32;;;;;;;29.15;31.84;97226.03;10293110;28;20073;-55
2022/08/27 10:30:23;;;;;;;13.17;4.17;;;;;;;29.36;32.09;97223.38;10293085;28;20073;-55
2022/08/27 10:35:27;;;;;;;17.65;5.65;;;;;;;29.55;30.78;97216.44;10293126;28;20424;-57
2022/08/27 10:40:28;;;;;;;14.00;4.60;;;;;;;29.70;30.59;97221.28;10292099;28;20065;-55
2022/08/27 10:45:46;;;;;;;10.82;4.80;;;;;;;29.94;30.50;97221.97;10288151;28;20077;-55
2022/08/27 10:50:53;;;;;;;13.90;4.72;;;;;;;30.02;28.40;97214.09;10285785;28;20065;-55
2022/08/27 10:56:09;;;;;;;14.35;4.88;;;;;;;30.12;26.90;97221.19;10286136;28;20517;-56
2022/08/27 11:01:08;;;;;;;12.45;4.65;;;;;;;30.27;28.04;97216.28;10288253;28;20065;-55
2022/08/27 11:06:22;;;;;;;10.43;4.35;;;;;;;30.22;27.03;97209.66;10288470;28;20049;-55
2022/08/27 11:11:33;;;;;;;12.13;4.55;;;;;;;30.21;28.12;97210.63;10288456;28;20088;-55
2022/08/27 11:16:38;;;;;;;15.27;3.90;;;;;;;30.15;29.34;97209.34;10325439;28;20493;-55
2022/08/27 11:21:50;;;;;;;10.07;3.90;;;;;;;30.29;29.88;97217.00;10328305;28;20075;-55
2022/08/27 11:26:53;;;;;;;8.32;4.13;;;;;;;30.44;28.17;97213.94;10328469;28;20077;-58
2022/08/27 11:31:59;;;;;;;10.98;4.25;;;;;;;30.37;28.05;97202.91;10327694;28;20065;-56
2022/08/27 11:37:22;;;;;;;14.40;4.55;;;;;;;30.39;29.33;97200.09;10327215;28;20116;-56
2022/08/27 11:42:40;;;;;;;16.00;5.47;;;;;;;30.38;28.50;97199.25;10327603;28;20152;-56
2022/08/27 11:47:59;;;;;;;19.17;4.10;;;;;;;30.56;28.70;97196.75;10327423;28;20597;-56
2022/08/27 11:53:01;;;;;;;13.05;4.15;;;;;;;30.73;28.72;97184.50;10326677;28;20080;-57
2022/08/27 11:58:17;;;;;;;12.93;4.32;;;;;;;30.98;27.58;97182.25;10325716;28;20136;-56
2022/08/27 12:03:19;;;;;;;13.68;4.18;;;;;;;31.01;27.08;97172.09;10326665;28;20076;-56
2022/08/27 12:08:20;;;;;;;9.90;4.10;;;;;;;31.00;26.61;97169.53;10327031;28;20061;-56
2022/08/27 12:13:27;;;;;;;10.68;3.75;;;;;;;31.01;26.68;97169.41;10304268;28;20060;-58
2022/08/27 12:18:38;;;;;;;11.40;3.72;;;;;;;31.12;26.14;97161.22;10327426;28;20065;-57
2022/08/27 12:23:51;;;;;;;11.40;4.03;;;;;;;31.08;27.27;97165.16;10317892;28;20558;-57
2022/08/27 12:28:54;;;;;;;14.23;4.10;;;;;;;31.20;25.92;97151.59;10284142;28;20061;-57
2022/08/27 12:33:53;;;;;;;8.93;3.92;;;;;;;31.12;25.83;97149.63;10291403;28;20144;-56
2022/08/27 12:38:55;;;;;;;9.40;3.88;;;;;;;31.15;24.99;97144.84;10292906;28;20062;-56
2022/08/27 12:44:06;;;;;;;9.02;3.58;;;;;;;31.23;25.70;97140.56;10291154;28;20479;-56
2022/08/27 12:49:05;;;;;;;16.73;4.45;;;;;;;31.47;25.66;97138.22;10293586;28;20077;-56
2022/08/27 12:54:25;;;;;;;7.20;3.80;;;;;;;31.53;26.23;97132.31;10298476;28;20070;-56
2022/08/27 12:59:43;;;;;;;11.02;3.95;;;;;;;31.43;25.38;97125.25;10297710;28;20475;-56
2022/08/27 13:04:42;;;;;;;8.48;3.70;;;;;;;31.36;24.41;97119.66;10302645;28;20214;-57
2022/08/27 13:09:41;;;;;;;8.98;3.70;;;;;;;31.37;25.69;97127.53;10319282;28;20057;-56
2022/08/27 13:14:40;;;;;;;11.82;3.90;;;;;;;31.52;25.95;97132.44;10303930;28;20048;-56
2022/08/27 13:20:00;;;;;;;10.48;3.60;;;;;;;31.71;28.01;97131.50;10296981;28;20050;-56
2022/08/27 13:24:59;;;;;;;8.88;4.35;;;;;;;31.78;25.60;97127.25;10292337;28;20089;-56
2022/08/27 13:30:06;;;;;;;13.80;3.83;;;;;;;31.70;26.03;97127.97;10289407;28;20089;-57
2022/08/27 13:35:06;;;;;;;11.47;4.03;;;;;;;31.89;27.02;97120.81;10291585;28;20061;-57
2022/08/27 13:40:06;;;;;;;9.65;4.22;;;;;;;32.04;26.03;97115.75;10267841;28;20065;-57
2022/08/27 13:45:06;;;;;;;10.48;4.40;;;;;;;32.25;26.12;97116.34;10295977;28;20087;-57
2022/08/27 13:50:16;;;;;;;10.90;3.95;;;;;;;32.16;24.84;97103.84;10330749;28;20145;-57
2022/08/27 13:55:17;;;;;;;14.45;4.32;;;;;;;31.97;24.97;97104.81;10296018;28;20125;-57
2022/08/27 14:00:26;;;;;;;12.90;4.75;;;;;;;31.78;25.66;97106.63;10259878;28;20073;-57
2022/08/27 14:05:25;;;;;;;10.10;4.05;;;;;;;31.74;25.92;97115.13;10287861;28;20065;-56
2022/08/27 14:10:32;;;;;;;13.90;4.55;;;;;;;31.59;26.09;97115.63;10299380;28;20068;-57
2022/08/27 14:15:37;;;;;;;14.90;4.55;;;;;;;31.62;25.48;97122.53;10332320;28;20057;-57
2022/08/27 14:20:36;;;;;;;14.27;3.92;;;;;;;31.54;26.02;97119.72;10332631;28;20180;-56
2022/08/27 14:25:35;;;;;;;13.50;4.00;;;;;;;31.56;25.51;97126.63;10331973;28;20029;-56
2022/08/27 14:30:34;;;;;;;12.45;4.07;;;;;;;31.59;26.42;97125.47;10310952;28;20095;-56
2022/08/27 14:35:35;;;;;;;12.60;4.18;;;;;;;31.26;26.69;97129.56;10332150;28;20107;-57
2022/08/27 14:40:34;;;;;;;14.57;4.50;;;;;;;31.24;26.98;97131.53;10331444;28;20076;-56
2022/08/27 14:45:33;;;;;;;10.65;4.00;;;;;;;31.30;27.64;97130.97;10331798;28;20061;-56
2022/08/27 14:50:32;;;;;;;12.60;3.58;;;;;;;31.25;27.03;97138.59;10326056;28;20085;-58
2022/08/27 14:55:31;;;;;;;19.42;4.28;;;;;;;31.13;27.58;97137.94;10290127;28;20050;-57
2022/08/27 15:00:30;;;;;;;10.80;4.13;;;;;;;30.91;27.75;97141.75;10290397;28;20042;-57
2022/08/27 15:05:29;;;;;;;12.48;4.30;;;;;;;30.87;27.80;97140.38;10261050;28;20068;-58
2022/08/27 15:10:29;;;;;;;11.00;4.10;;;;;;;30.78;27.41;97142.06;10263084;28;20028;-57
2022/08/27 15:15:28;;;;;;;10.95;3.80;;;;;;;30.69;27.65;97140.25;10329784;28;20057;-58
2022/08/27 15:20:27;;;;;;;12.55;4.10;;;;;;;30.64;28.28;97137.97;10270985;28;20029;-57
2022/08/27 15:25:26;;;;;;;13.00;4.07;;;;;;;30.61;28.44;97140.97;10289361;28;20450;-57
2022/08/27 15:30:27;;;;;;;17.33;4.57;;;;;;;30.45;29.04;97140.69;10286878;28;20061;-57
2022/08/27 15:35:26;;;;;;;11.93;4.43;;;;;;;30.25;29.15;97134.44;10279482;28;20081;-57
2022/08/27 15:40:30;;;;;;;13.90;5.50;;;;;;;30.18;29.24;97141.31;10270636;28;20069;-57
2022/08/27 15:45:31;;;;;;;13.25;4.38;;;;;;;30.06;29.76;97133.44;10293283;28;20076;-57
2022/08/27 15:50:30;;;;;;;14.20;5.20;;;;;;;29.93;29.89;97130.19;10292757;28;20068;-56
2022/08/27 15:55:32;;;;;;;11.63;5.00;;;;;;;29.90;30.55;97128.59;10283795;28;20073;-57
2022/08/27 16:00:33;;;;;;;19.23;5.60;;;;;;;29.82;31.50;97123.06;10281121;28;20053;-57
2022/08/27 16:05:35;;;;;;;11.70;4.25;;;;;;;29.77;31.21;97128.00;10290469;28;20057;-56
2022/08/27 16:10:35;;;;;;;12.00;4.95;;;;;;;29.61;31.97;97141.03;10288396;28;20073;-56
2022/08/27 16:15:38;;;;;;;11.60;6.05;;;;;;;29.46;31.54;97149.44;10291269;28;20088;-56
2022/08/27 16:20:37;;;;;;;19.75;5.88;;;;;;;29.36;32.67;97153.88;10297221;28;20080;-56
2022/08/27 16:25:36;;;;;;;14.38;6.35;;;;;;;29.24;34.42;97154.91;10289878;28;20092;-57
2022/08/27 16:30:35;;;;;;;16.33;7.80;;;;;;;29.04;35.41;97159.28;10276769;28;20392;-57
2022/08/27 16:35:35;;;;;;;16.17;6.45;;;;;;;28.83;35.98;97167.34;10285000;28;20081;-57
2022/08/27 16:40:42;;;;;;;14.73;6.40;;;;;;;28.58;36.44;97169.38;10286810;28;20531;-56
2022/08/27 16:45:41;;;;;;;13.93;7.07;;;;;;;28.29;36.79;97186.94;10325021;28;20069;-57
2022/08/27 16:50:41;;;;;;;20.83;6.40;;;;;;;27.98;37.31;97186.75;10327894;28;20053;-57
2022/08/27 16:55:42;;;;;;;15.70;6.18;;;;;;;27.66;37.73;97195.53;10289267;28;20110;-56
2022/08/27 17:00:42;;;;;;;17.13;5.65;;;;;;;27.36;38.31;97201.41;10278844;28;20120;-58
2022/08/27 17:05:41;;;;;;;13.48;5.82;;;;;;;27.05;38.68;97206.47;10260438;28;20062;-59
2022/08/27 17:10:45;;;;;;;12.70;5.63;;;;;;;26.67;39.03;97206.66;10253792;28;20037;-57
2022/08/27 17:15:46;;;;;;;15.07;5.60;;;;;;;26.38;40.11;97220.31;10271674;28;20132;-57
2022/08/27 17:20:49;;;;;;;12.07;5.70;;;;;;;26.09;40.64;97222.41;10289840;28;20069;-56
2022/08/27 17:25:48;;;;;;;13.63;6.03;;;;;;;25.80;41.36;97224.50;10275470;28;20085;-56
2022/08/27 17:30:48;;;;;;;14.52;6.25;;;;;;;25.53;41.96;97234.31;10252947;28;20074;-57
2022/08/27 17:35:47;;;;;;;12.63;5.68;;;;;;;25.14;43.43;97245.88;10253421;28;20105;-57
2022/08/27 17:40:46;;;;;;;16.15;6.55;;;;;;;24.93;44.62;97250.81;10252860;28;20057;-56
2022/08/27 17:45:46;;;;;;;21.08;6.53;;;;;;;24.66;46.20;97254.34;10269538;28;20069;-57
2022/08/27 17:50:45;;;;;;;14.55;5.38;;;;;;;24.37;46.15;97245.63;10257721;28;20081;-56
2022/08/27 17:55:44;;;;;;;11.02;5.75;;;;;;;24.29;45.67;97269.16;10279276;28;20072;-56
2022/08/27 18:00:43;;;;;;;21.77;6.97;;;;;;;24.20;45.70;97281.19;10292383;28;20415;-57
2022/08/27 18:05:43;;;;;;;12.93;5.72;;;;;;;24.08;46.68;97278.44;10279915;28;20022;-58
2022/08/27 18:10:43;;;;;;;13.57;6.57;;;;;;;23.96;46.49;97280.03;10279950;28;20061;-56
2022/08/27 18:15:43;;;;;;;15.63;6.18;;;;;;;23.84;46.50;97276.38;10283390;28;20070;-57
2022/08/27 18:20:42;;;;;;;10.52;6.28;;;;;;;23.73;47.14;97279.69;10251463;28;20064;-56
2022/08/27 18:25:43;;;;;;;15.90;6.25;;;;;;;23.55;48.31;97299.38;10273380;28;20057;-56
2022/08/27 18:30:43;;;;;;;15.15;6.95;;;;;;;23.21;49.53;97294.28;10291171;28;20080;-56
2022/08/27 18:35:42;;;;;;;23.45;8.88;;;;;;;23.05;51.11;97314.66;10291247;28;20468;-56
2022/08/27 18:40:48;;;;;;;18.15;7.43;;;;;;;22.93;51.54;97310.09;10291162;28;20413;-57
2022/08/27 18:45:47;;;;;;;20.10;8.18;;;;;;;22.84;52.16;97315.91;10301671;28;20459;-57
2022/08/27 18:50:57;;;;;;;17.00;7.45;;;;;;;22.79;52.73;97318.81;10330796;28;20411;-57
2022/08/27 18:55:57;;;;;;;19.65;8.93;;;;;;;22.72;53.68;97326.22;10297258;28;20081;-56
2022/08/27 19:01:00;;;;;;;15.85;7.47;;;;;;;22.62;54.21;97326.81;10258893;28;20839;-56
2022/08/27 19:06:00;;;;;;;15.88;7.72;;;;;;;22.52;55.31;97318.53;10267179;28;20710;-56
2022/08/27 19:10:59;;;;;;;16.05;7.80;;;;;;;22.36;55.29;97319.38;10288019;28;20116;-56
2022/08/27 19:16:02;;;;;;;17.83;8.13;;;;;;;22.26;55.99;97336.69;10313948;28;20092;-56
2022/08/27 19:21:02;;;;;;;20.45;8.68;;;;;;;22.21;56.60;97351.13;10289983;28;20065;-56
2022/08/27 19:26:01;;;;;;;18.73;8.07;;;;;;;22.13;57.37;97362.97;10264485;28;20473;-56
2022/08/27 19:31:00;;;;;;;18.25;8.63;;;;;;;22.10;58.07;97363.09;10249139;28;20058;-56
2022/08/27 19:36:00;;;;;;;20.38;8.68;;;;;;;22.01;58.69;97363.59;10248136;28;20034;-57
2022/08/27 19:41:01;;;;;;;22.27;9.18;;;;;;;21.90;58.79;97365.94;10261041;28;20061;-56
2022/08/27 19:46:02;;;;;;;19.63;9.10;;;;;;;21.81;59.13;97369.91;10286989;28;20131;-55
2022/08/27 19:51:02;;;;;;;15.35;7.95;;;;;;;21.68;60.29;97376.75;10261836;28;20509;-55
2022/08/27 19:56:01;;;;;;;16.75;7.97;;;;;;;21.51;63.23;97377.63;10247676;28;20133;-57
2022/08/27 20:01:00;;;;;;;12.85;7.40;;;;;;;21.24;63.65;97378.13;10272438;28;20476;-57
2022/08/27 20:05:59;;;;;;;14.85;7.05;;;;;;;21.18;63.64;97372.25;10288101;28;20061;-57
2022/08/27 20:10:58;;;;;;;16.33;7.65;;;;;;;21.14;63.57;97375.03;10292011;28;20064;-57
2022/08/27 20:15:57;;;;;;;12.65;7.38;;;;;;;21.10;63.61;97373.50;10287914;28;20074;-57
2022/08/27 20:20:56;;;;;;;19.75;8.85;;;;;;;20.99;64.85;97377.59;10268613;28;20034;-57
2022/08/27 20:25:55;;;;;;;15.82;8.07;;;;;;;20.90;65.43;97389.44;10281798;28;20454;-57
2022/08/27 20:30:56;;;;;;;18.70;8.77;;;;;;;20.78;65.96;97390.88;10266369;28;20074;-57
2022/08/27 20:35:57;;;;;;;18.02;8.32;;;;;;;20.68;66.43;97387.84;10251450;28;20081;-57
2022/08/27 20:40:56;;;;;;;14.40;7.50;;;;;;;20.49;66.33;97369.41;10259019;28;20062;-57
2022/08/27 20:45:55;;;;;;;13.88;7.90;;;;;;;20.45;66.51;97377.53;10270876;28;20519;-57
2022/08/27 20:50:55;;;;;;;16.27;7.90;;;;;;;20.39;67.01;97386.53;10332231;28;20187;-57
2022/08/27 20:55:55;;;;;;;15.23;7.93;;;;;;;20.26;67.65;97383.59;10338993;28;20539;-57
2022/08/27 21:00:54;;;;;;;14.75;8.02;;;;;;;20.17;68.24;97381.41;10332468;28;20061;-57
2022/08/27 21:05:53;;;;;;;13.70;7.15;;;;;;;20.08;68.49;97390.56;10297895;28;20069;-57
2022/08/27 21:10:55;;;;;;;19.48;9.10;;;;;;;19.99;69.18;97388.34;10298562;28;20104;-57
2022/08/27 21:15:54;;;;;;;12.68;8.35;;;;;;;19.95;69.06;97393.81;10317612;28;20509;-57
2022/08/27 21:20:53;;;;;;;15.48;7.95;;;;;;;19.91;69.39;97397.50;10305111;28;20503;-57
2022/08/27 21:25:54;;;;;;;19.40;7.47;;;;;;;19.71;71.38;97407.13;10297226;28;20415;-57
2022/08/27 21:30:53;;;;;;;16.52;7.97;;;;;;;19.61;71.37;97404.03;10298817;28;20081;-57
2022/08/27 21:35:52;;;;;;;15.00;8.18;;;;;;;19.57;70.99;97398.97;10302343;28;20099;-57
2022/08/27 21:40:51;;;;;;;14.45;7.43;;;;;;;19.53;71.19;97405.25;10284910;28;20069;-57
2022/08/27 21:45:55;;;;;;;17.52;8.13;;;;;;;19.51;71.60;97409.72;10293128;28;20076;-57
2022/08/27 21:50:54;;;;;;;16.05;7.43;;;;;;;19.44;72.09;97410.00;10288050;28;20081;-57
2022/08/27 21:55:53;;;;;;;16.05;6.93;;;;;;;19.35;71.86;97415.66;10283330;28;20144;-57
2022/08/27 22:00:52;;;;;;;15.50;6.95;;;;;;;19.27;72.10;97401.09;10265662;28;20423;-57
2022/08/27 22:05:51;;;;;;;14.45;6.80;;;;;;;19.20;71.69;97403.13;10282204;28;20069;-57
2022/08/27 22:10:56;;;;;;;13.80;7.45;;;;;;;19.16;71.64;97397.16;10288246;28;20506;-57
2022/08/27 22:15:56;;;;;;;12.65;6.90;;;;;;;19.15;71.74;97400.69;10328860;28;20129;-57
2022/08/27 22:20:56;;;;;;;19.95;7.88;;;;;;;19.10;72.95;97393.91;10331439;28;20061;-57
2022/08/27 22:25:55;;;;;;;21.63;8.68;;;;;;;18.89;74.94;97393.84;10331756;28;20073;-57
2022/08/27 22:30:54;;;;;;;16.48;8.00;;;;;;;18.86;75.50;97386.09;10332730;28;20474;-57
2022/08/27 22:35:53;;;;;;;17.20;8.60;;;;;;;18.78;75.38;97389.03;10302689;28;20400;-57
2022/08/27 22:40:52;;;;;;;19.48;8.68;;;;;;;18.75;74.96;97388.28;10291417;28;20030;-57
2022/08/27 22:45:51;;;;;;;20.92;8.80;;;;;;;18.69;75.46;97393.78;10290780;28;20451;-57
2022/08/27 22:50:50;;;;;;;19.25;9.23;;;;;;;18.61;75.90;97386.16;10291319;28;20077;-57
2022/08/27 22:55:49;;;;;;;14.45;8.48;;;;;;;18.53;76.48;97381.22;10290670;28;20040;-57
2022/08/27 23:00:48;;;;;;;18.02;9.55;;;;;;;18.50;76.71;97389.25;10290882;28;20061;-57
2022/08/27 23:05:47;;;;;;;15.52;9.60;;;;;;;18.38;77.02;97381.81;10287371;28;20073;-56
2022/08/27 23:10:46;;;;;;;13.73;8.45;;;;;;;18.36;78.68;97402.03;10290931;28;20490;-57
2022/08/27 23:15:45;;;;;;;15.27;10.80;;;;;;;18.25;79.60;97406.84;10328355;28;20061;-57
2022/08/27 23:20:44;;;;;;;18.52;10.43;;;;;;;18.21;79.78;97402.63;10330500;28;20534;-57
2022/08/27 23:31:01;;;;;;;15.95;10.20;;;;;;;18.11;80.07;97402.94;10331058;28;20064;-57